Umiak I — XJAR — position and weather

sailwx.info

Track history (hours):
 
Tides and Currents Weather Stations Pressure Air Temp Water Temp Dewpoint Dewpoint Depression Visibility Wind Speed Wind Dir Waves Ship Positions

Umiak I

Last reported at 2014-Jul-16 12:28 UTC. Time now 2014-Jul-26 17:12 UTC.
Position N 57°40' E 008°34'.
Warning: this ship's position is 10 days out of date.

Length 188 m; draft 9.4 m.

Type: Cargo ship. MMSI: 316013340.

Date/timePositionNaut miles runAvg speedWind from/ knotsBaromVisibWave heightAir tempDewpointWater temp
2014-Jul-16 12:28N 57°40' E 008°34'1011.2
2014-Jul-16 11:33N 57°41' E 008°53'3711.0
2014-Jul-16 08:10N 57°46' E 010°03'710.9
2014-Jul-16 07:33N 57°49' E 010°14'1110.7
2014-Jul-16 06:33N 57°48' E 010°34'10 9.7
2014-Jul-16 05:33N 57°45' E 010°51'5 5.5
2014-Jul-16 04:33N 57°42' E 010°43'2 1.6
2014-Jul-16 03:30N 57°42' E 010°40'0 0.0
2014-Jul-16 00:30N 57°42' E 010°40'0 0.0
2014-Jul-15 23:33N 57°42' E 010°40'0 0.0
2014-Jul-15 22:33N 57°42' E 010°40'0 0.0
2014-Jul-15 21:30N 57°42' E 010°40'0 0.0
2014-Jul-15 20:12N 57°42' E 010°40'0 0.0
2014-Jul-15 19:33N 57°42' E 010°40'0 0.0
2014-Jul-15 18:33N 57°42' E 010°40'0 0.0
2014-Jul-15 16:33N 57°42' E 010°40'3 2.8
2014-Jul-15 15:33N 57°42' E 010°45'10 9.7
2014-Jul-15 14:33N 57°41' E 011°03'1211.5
2014-Jul-15 13:33N 57°33' E 011°18'1211.9
2014-Jul-15 12:33N 57°23' E 011°30'1212.1
2014-Jul-15 11:33N 57°11' E 011°37'1212.3
2014-Jul-15 10:33N 56°59' E 011°44'1212.5
2014-Jul-15 09:33N 56°48' E 011°52'1211.4
2014-Jul-15 08:33N 56°37' E 011°44'2512.3
2014-Jul-15 06:32N 56°16' E 011°22'1212.2
2014-Jul-15 05:33N 56°06' E 011°09'1512.2
2014-Jul-15 04:18N 55°53' E 010°54'3311.4
2014-Jul-15 01:25N 55°21' E 011°02'3310.9
2014-Jul-14 22:25N 54°48' E 010°53'910.3
2014-Jul-14 21:33N 54°40' E 010°59'1111.4
2014-Jul-14 20:33N 54°35' E 011°16'1111.2
2014-Jul-14 19:33N 54°30' E 011°33'1111.1
2014-Jul-14 18:33N 54°26' E 011°51'1111.1
2014-Jul-14 17:33N 54°26' E 012°10'1110.8
2014-Jul-14 16:33N 54°37' E 012°17'1111.0
2014-Jul-14 15:33N 54°43' E 012°33'1111.4
2014-Jul-14 14:33N 54°49' E 012°49'1111.0
2014-Jul-14 13:33N 54°52' E 013°08'1110.8
2014-Jul-14 12:33N 54°56' E 013°25'1110.9
2014-Jul-14 11:33N 54°60' E 013°43'2210.6
2014-Jul-14 09:29N 55°12' E 014°14'1011.0
2014-Jul-14 08:33N 55°20' E 014°26'1110.9
2014-Jul-14 07:33N 55°28' E 014°40'1111.1
2014-Jul-14 06:32N 55°33' E 014°58'1511.3
2014-Jul-14 05:14N 55°39' E 015°21'811.1
2014-Jul-14 04:33N 55°42' E 015°34'1411.0
2014-Jul-14 03:19N 55°44' E 015°57'1311.1
2014-Jul-14 02:07N 55°48' E 016°21'911.0
2014-Jul-14 01:18N 55°50' E 016°36'1310.9
2014-Jul-14 00:05N 55°53' E 016°59'711.0
2014-Jul-13 23:28N 55°55' E 017°11'1011.0
2014-Jul-13 22:33N 55°57' E 017°28'2711.0
2014-Jul-13 20:04N 56°10' E 018°11'611.0
2014-Jul-13 19:33N 56°13' E 018°20'  
2014-Jul-07 03:22N 57°20' E 019°45'1012.5
2014-Jul-07 02:33N 57°11' E 019°38'1212.4
2014-Jul-07 01:33N 56°60' E 019°27'1312.3
2014-Jul-07 00:29N 56°48' E 019°17'2812.3
2014-Jul-06 22:14N 56°23' E 018°54'911.8
2014-Jul-06 21:30N 56°17' E 018°44'3612.1
2014-Jul-06 18:33N 55°59' E 017°49'1411.9
2014-Jul-06 17:25N 55°54' E 017°26'1012.1
2014-Jul-06 16:33N 55°51' E 017°08'1212.2
2014-Jul-06 15:33N 55°49' E 016°47'2412.1
2014-Jul-06 13:33N 55°43' E 016°05'1212.0
2014-Jul-06 12:33N 55°41' E 015°44'  
Track history (hours):
 
Tides and Currents Weather Stations Pressure Air Temp Water Temp Dewpoint Dewpoint Depression Visibility Wind Speed Wind Dir Waves Ship Positions

Umiak I

Last reported at 2014-Jul-16 12:28 UTC. Time now 2014-Jul-26 17:12 UTC.
Position N 57°40' E 008°34'.
Warning: this ship's position is 10 days out of date.

Length 188 m; draft 9.4 m.

Type: Cargo ship. MMSI: 316013340.

Date/timePositionNaut miles runAvg speedWind from/ knotsBaromVisibWave heightAir tempDewpointWater temp
2014-Jul-16 12:28N 57°40' E 008°34'1011.2
2014-Jul-16 11:33N 57°41' E 008°53'3711.0
2014-Jul-16 08:10N 57°46' E 010°03'710.9
2014-Jul-16 07:33N 57°49' E 010°14'1110.7
2014-Jul-16 06:33N 57°48' E 010°34'10 9.7
2014-Jul-16 05:33N 57°45' E 010°51'5 5.5
2014-Jul-16 04:33N 57°42' E 010°43'2 1.6
2014-Jul-16 03:30N 57°42' E 010°40'0 0.0
2014-Jul-16 00:30N 57°42' E 010°40'0 0.0
2014-Jul-15 23:33N 57°42' E 010°40'0 0.0
2014-Jul-15 22:33N 57°42' E 010°40'0 0.0
2014-Jul-15 21:30N 57°42' E 010°40'0 0.0
2014-Jul-15 20:12N 57°42' E 010°40'0 0.0
2014-Jul-15 19:33N 57°42' E 010°40'0 0.0
2014-Jul-15 18:33N 57°42' E 010°40'0 0.0
2014-Jul-15 16:33N 57°42' E 010°40'3 2.8
2014-Jul-15 15:33N 57°42' E 010°45'10 9.7
2014-Jul-15 14:33N 57°41' E 011°03'1211.5
2014-Jul-15 13:33N 57°33' E 011°18'1211.9
2014-Jul-15 12:33N 57°23' E 011°30'1212.1
2014-Jul-15 11:33N 57°11' E 011°37'1212.3
2014-Jul-15 10:33N 56°59' E 011°44'1212.5
2014-Jul-15 09:33N 56°48' E 011°52'1211.4
2014-Jul-15 08:33N 56°37' E 011°44'2512.3
2014-Jul-15 06:32N 56°16' E 011°22'1212.2
2014-Jul-15 05:33N 56°06' E 011°09'1512.2
2014-Jul-15 04:18N 55°53' E 010°54'3311.4
2014-Jul-15 01:25N 55°21' E 011°02'3310.9
2014-Jul-14 22:25N 54°48' E 010°53'910.3
2014-Jul-14 21:33N 54°40' E 010°59'1111.4
2014-Jul-14 20:33N 54°35' E 011°16'1111.2
2014-Jul-14 19:33N 54°30' E 011°33'1111.1
2014-Jul-14 18:33N 54°26' E 011°51'1111.1
2014-Jul-14 17:33N 54°26' E 012°10'1110.8
2014-Jul-14 16:33N 54°37' E 012°17'1111.0
2014-Jul-14 15:33N 54°43' E 012°33'1111.4
2014-Jul-14 14:33N 54°49' E 012°49'1111.0
2014-Jul-14 13:33N 54°52' E 013°08'1110.8
2014-Jul-14 12:33N 54°56' E 013°25'1110.9
2014-Jul-14 11:33N 54°60' E 013°43'2210.6
2014-Jul-14 09:29N 55°12' E 014°14'1011.0
2014-Jul-14 08:33N 55°20' E 014°26'1110.9
2014-Jul-14 07:33N 55°28' E 014°40'1111.1
2014-Jul-14 06:32N 55°33' E 014°58'1511.3
2014-Jul-14 05:14N 55°39' E 015°21'811.1
2014-Jul-14 04:33N 55°42' E 015°34'1411.0
2014-Jul-14 03:19N 55°44' E 015°57'1311.1
2014-Jul-14 02:07N 55°48' E 016°21'911.0
2014-Jul-14 01:18N 55°50' E 016°36'1310.9
2014-Jul-14 00:05N 55°53' E 016°59'711.0
2014-Jul-13 23:28N 55°55' E 017°11'1011.0
2014-Jul-13 22:33N 55°57' E 017°28'2711.0
2014-Jul-13 20:04N 56°10' E 018°11'611.0
2014-Jul-13 19:33N 56°13' E 018°20'  
2014-Jul-07 03:22N 57°20' E 019°45'1012.5
2014-Jul-07 02:33N 57°11' E 019°38'1212.4
2014-Jul-07 01:33N 56°60' E 019°27'1312.3
2014-Jul-07 00:29N 56°48' E 019°17'2812.3
2014-Jul-06 22:14N 56°23' E 018°54'911.8
2014-Jul-06 21:30N 56°17' E 018°44'3612.1
2014-Jul-06 18:33N 55°59' E 017°49'1411.9
2014-Jul-06 17:25N 55°54' E 017°26'1012.1
2014-Jul-06 16:33N 55°51' E 017°08'1212.2
2014-Jul-06 15:33N 55°49' E 016°47'2412.1
2014-Jul-06 13:33N 55°43' E 016°05'1212.0
2014-Jul-06 12:33N 55°41' E 015°44'  

Dump ship's entire track history